Nearby METAR Reports

 

KCOS - Colorado Springs, Colorado, USA
Distance from station: S 6mi, 9km
Updated: 09/23/2018 8:54pm
Partly cloudy
Partly cloudy
 Wind from SW
Wind: SW 7 mph , 11 km/h
Temperature: 72°F , 22°C
Dew Point: 27°F , -3°C
Humidity: 19%
Barometer: 30.01 inHg , 1016.3 hPa
Clouds: Partly cloudy
Visibility: 10 miles , 16 km
Cloud details: Partly cloudy 13000 ft
2018/09/24 02:54 KCOS 240254Z 23006KT 10SM SCT130 22/M03 A3001 RMK AO2 SLP067 T02171028 53010 $
KAFF - Usaf Academy/Cos, Colorado, USA
Distance from station: NW 7mi, 12km
Updated: 09/21/2018 4:56pm
NOT Current
Clear
Clear
 Wind from SE
Wind: SE 24 mph , 39 km/h, Gust: 30 mph , 48 km/h
Temperature: 68°F , 20°C
Dew Point: 45°F , 7°C
Humidity: 43%
Barometer: 30.29 inHg , 1025.7 hPa
Clouds: Clear
Visibility: 10 miles , 16 km
2018/09/21 22:56 KAFF 212256Z AUTO 14021G26KT 10SM CLR 20/07 A3029 RMK AO2 PK WND 16027/07 SLP198 T01980065
 
KFLY - Co Spngs Meadow, Colorado, USA
Distance from station: ENE 8mi, 13km
Updated: 09/23/2018 9:35pm
Clear
Clear
 Wind from SW
Wind: SW 6 mph , 9 km/h
Temperature: 63°F , 17°C
Dew Point: 21°F , -6°C
Humidity: 20%
Barometer: 30.06 inHg , 1017.9 hPa
Clouds: Clear
Visibility: 10 miles , 16 km
2018/09/24 03:35 KFLY 240335Z AUTO 23005KT 10SM CLR 17/M06 A3006 RMK AO2 T01701060
KFCS - Fort Carson, Colorado, USA
Distance from station: S 17mi, 27km
Updated: 09/18/2018 1:56pm
NOT Current
Clear
Clear
 Wind from SSE
Wind: SSE 16 mph , 26 km/h, Gust: 24 mph , 39 km/h
Temperature: 91°F , 33°C
Dew Point: 34°F , 1°C
Humidity: 13%
Barometer: 30.01 inHg , 1016.3 hPa
Clouds: Clear
Visibility: 10 miles , 16 km
2018/09/18 19:56 KFCS 181956Z AUTO 16014G21KT 10SM CLR 33/01 A3001 RMK AO2 SLP092 T03270007
 
KMNH - Monument/Elbert, Colorado, USA
Distance from station: N 22mi, 35km
Updated: 09/23/2018 9:24pm
Clear
Clear
 Wind from SSW
Wind: SSW 7 mph , 11 km/h
Temperature: 59°F , 15°C
Dew Point: 27°F , -3°C
Humidity: 29%
Barometer: 30.07 inHg , 1018.3 hPa
Clouds: Clear
Visibility: 10 miles , 16 km
2018/09/24 03:24 KMNH 240324Z AUTO 20006KT 10SM CLR 15/M03 A3007 RMK AO2
K1V6 - Canon City, Colorado, USA
Distance from station: SSW 39mi, 62km
Updated: 09/11/2018 12:30am
NOT Current
Clear
Clear
 Wind from WNW
Wind: WNW 9 mph , 15 km/h
Temperature: 63°F , 17°C
Dew Point: 34°F , 1°C
Humidity: 34%
Barometer: 30.04 inHg , 1017.3 hPa
Clouds: Clear
Visibility: 10 miles , 16 km
2018/09/11 06:30 K1V6 110630Z AUTO 29008KT 10SM CLR 17/01 A3004 RMK AO2
 
KPUB - Pueblo, Colorado, USA
Distance from station: SSE 44mi, 71km
Updated: 09/23/2018 8:53pm
Clear
Clear
 Wind from ESE
Wind: ESE 7 mph , 11 km/h
Temperature: 70°F , 21°C
Dew Point: 32°F , 0°C
Humidity: 25%
Barometer: 29.87 inHg , 1011.5 hPa
Clouds: Clear
Visibility: 10 miles , 16 km
2018/09/24 02:53 KPUB 240253Z 11006KT 10SM CLR 21/00 A2987 RMK AO2 SLP065 T02060000 53004
KAPA - Denver/Arapahoe, Colorado, USA
Distance from station: N 47mi, 75km
Updated: 09/23/2018 8:53pm
Mostly cloudy
Mostly cloudy
 Wind from WNW
Wind: WNW 9 mph , 15 km/h
Temperature: 72°F , 22°C
Dew Point: 28°F , -2°C
Humidity: 20%
Barometer: 29.94 inHg , 1013.9 hPa
Clouds: Mostly cloudy
Visibility: 10 miles , 16 km
Cloud details: Partly cloudy 13000 ft
Mostly cloudy 22000 ft
2018/09/24 02:53 KAPA 240253Z 29008KT 10SM SCT130 BKN220 22/M02 A2994 RMK AO2 SLP065 T02171022 53004